Time;durP1;ratioP1;P1;durP2;ratioP2;P2;SDS_P1;SDS_P2;PMS_P1;PMS_P2;Temp;Humidity;BMP_temperature;BMP_pressure;BME280_temperature;BME280_humidity;BME280_pressure;Samples;Min_cycle;Max_cycle;Signal;HPM_P1;HPM_P2
2022/06/24 00:01:23;;;;;;;6.23;1.10;;;;;;;21.92;63.16;99095.72;12201969;19;20033;-82
2022/06/24 00:05:29;;;;;;;3.40;0.90;;;;;;;21.83;64.48;99101.38;12212009;19;20007;-82
2022/06/24 00:09:30;;;;;;;4.18;1.70;;;;;;;21.91;63.55;99107.25;12205038;19;20033;-82
2022/06/24 00:13:39;;;;;;;4.97;1.17;;;;;;;21.89;64.75;99107.59;12178903;19;20014;-82
2022/06/24 00:17:41;;;;;;;1.77;1.13;;;;;;;21.93;64.42;99116.97;12203370;19;20011;-83
2022/06/24 00:21:42;;;;;;;3.30;1.02;;;;;;;21.89;64.75;99116.00;12204160;19;20356;-83
2022/06/24 00:25:46;;;;;;;5.95;1.48;;;;;;;21.89;64.53;99120.78;12178920;19;20591;-83
2022/06/24 00:29:49;;;;;;;3.88;1.10;;;;;;;21.89;64.44;99120.78;12211870;19;20059;-83
2022/06/24 00:33:51;;;;;;;3.42;1.23;;;;;;;21.82;65.36;99130.56;12209015;19;20006;-83
2022/06/24 00:37:52;;;;;;;4.93;1.30;;;;;;;21.85;64.93;99110.25;12176010;19;20016;-82
2022/06/24 00:41:54;;;;;;;7.43;1.38;;;;;;;21.83;65.13;99109.81;12201986;19;20006;-82
2022/06/24 00:46:08;;;;;;;3.50;1.23;;;;;;;21.83;65.38;99114.56;12204052;19;20457;-83
2022/06/24 00:50:20;;;;;;;3.25;1.70;;;;;;;21.88;65.71;99127.59;12181605;19;20495;-82
2022/06/24 00:54:24;;;;;;;4.93;1.50;;;;;;;21.85;66.52;99118.69;12205141;19;20068;-81
2022/06/24 00:58:26;;;;;;;5.45;1.63;;;;;;;21.89;66.82;99123.59;12187694;19;20018;-82
2022/06/24 01:02:29;;;;;;;4.88;1.50;;;;;;;21.76;70.11;99133.94;12202611;19;20483;-82
2022/06/24 01:06:32;;;;;;;7.38;1.92;;;;;;;21.57;75.29;99143.63;12202156;19;20028;-80
2022/06/24 01:10:34;;;;;;;5.20;2.30;;;;;;;21.43;77.57;99136.63;12185033;19;20074;-84
2022/06/24 01:14:35;;;;;;;5.57;1.85;;;;;;;21.09;83.16;99139.25;12219244;19;20031;-83
2022/06/24 01:18:43;;;;;;;7.43;2.08;;;;;;;20.94;84.39;99125.81;12246419;19;20014;-83
2022/06/24 01:22:45;;;;;;;4.83;1.80;;;;;;;20.79;85.07;99121.56;12185996;19;20078;-80
2022/06/24 01:26:50;;;;;;;7.57;2.03;;;;;;;20.59;88.57;99114.72;12208291;19;20495;-82
2022/06/24 01:30:52;;;;;;;6.63;1.98;;;;;;;20.42;90.34;99112.72;12203883;19;20014;-81
2022/06/24 01:34:56;;;;;;;9.13;2.17;;;;;;;20.28;92.46;99114.88;12179955;19;20495;-84
2022/06/24 01:38:57;;;;;;;9.38;2.20;;;;;;;20.20;92.29;99140.91;12207600;19;20356;-83
2022/06/24 01:43:00;;;;;;;7.30;2.05;;;;;;;20.14;95.48;99156.22;12208376;19;20074;-84
2022/06/24 01:47:03;;;;;;;5.20;2.35;;;;;;;20.05;97.05;99139.44;12177079;19;20138;-84
2022/06/24 01:51:54;;;;;;;5.72;2.00;;;;;;;19.98;96.72;99123.13;12200225;19;20006;-83
2022/06/24 02:00:40;;;;;;;10.88;3.40;;;;;;;19.80;100.00;99105.53;12203460;19;20080;-82
2022/06/24 02:04:45;;;;;;;11.10;2.95;;;;;;;19.70;100.00;99091.09;12169276;19;20034;-84
2022/06/24 02:08:47;;;;;;;4.68;2.45;;;;;;;19.69;100.00;99087.47;12205821;19;20007;-82
2022/06/24 02:17:18;;;;;;;9.05;3.50;;;;;;;19.60;100.00;99075.41;12176491;19;20010;-82
2022/06/24 02:21:21;;;;;;;11.43;3.30;;;;;;;19.61;100.00;99082.66;12198624;19;20002;-83
2022/06/24 02:25:24;;;;;;;7.88;2.90;;;;;;;19.65;100.00;99080.06;12207597;19;20078;-83
2022/06/24 02:29:26;;;;;;;5.05;2.92;;;;;;;19.63;100.00;99066.41;12170683;19;20078;-82
2022/06/24 02:33:28;;;;;;;;;;;;;;;19.63;100.00;99063.59;12202759;19;20082;-82
2022/06/24 02:37:30;;;;;;;5.28;3.15;;;;;;;19.47;100.00;99048.44;12168741;19;19917;-82
2022/06/24 02:41:32;;;;;;;6.57;3.47;;;;;;;19.38;100.00;99053.22;12198913;19;20062;-81
2022/06/24 02:45:43;;;;;;;5.75;3.63;;;;;;;19.21;100.00;99052.03;12207009;19;20360;-80
2022/06/24 02:49:44;;;;;;;6.13;3.28;;;;;;;19.15;100.00;99035.75;12177970;19;20478;-81
2022/06/24 02:53:46;;;;;;;5.95;3.70;;;;;;;19.09;100.00;99035.91;12203111;19;20014;-80
2022/06/24 02:57:48;;;;;;;6.63;4.13;;;;;;;19.04;100.00;99044.44;12197248;19;20039;-81
2022/06/24 03:01:49;;;;;;;6.95;3.80;;;;;;;19.09;100.00;99035.06;12197000;19;20157;-81
2022/06/24 03:05:52;;;;;;;8.70;4.40;;;;;;;19.17;100.00;99036.25;12214526;19;20011;-81
2022/06/24 03:09:53;;;;;;;8.70;4.32;;;;;;;19.16;100.00;99034.63;12205785;19;20014;-80
2022/06/24 03:13:55;;;;;;;9.68;5.32;;;;;;;19.11;100.00;99041.97;12190858;19;20011;-82
2022/06/24 03:17:57;;;;;;;12.60;5.65;;;;;;;19.15;100.00;99032.97;12215876;19;20073;-82
2022/06/24 03:21:59;;;;;;;11.75;5.10;;;;;;;19.18;100.00;99038.72;12214791;19;20006;-81
2022/06/24 03:26:02;;;;;;;13.30;5.95;;;;;;;19.10;100.00;99048.72;12183708;19;20610;-82
2022/06/24 03:30:05;;;;;;;8.82;4.97;;;;;;;19.03;100.00;99041.97;12211948;19;20011;-82
2022/06/24 03:34:07;;;;;;;9.20;4.68;;;;;;;18.92;100.00;99051.78;12206435;19;20695;-82
2022/06/24 03:43:08;;;;;;;10.35;4.95;;;;;;;18.88;100.00;99068.34;12215211;19;20743;-81
2022/06/24 04:22:00;;;;;;;6.13;3.75;;;;;;;19.08;100.00;99059.38;12219968;19;20022;-80
2022/06/24 04:27:21;;;;;;;;;;;;;;;;;;;;;
2022/06/24 04:53:12;;;;;;;;;;;;;;;;;;;;;
2022/06/24 04:57:34;;;;;;;6.63;2.83;;;;;;;19.41;100.00;99047.78;12193956;19;20013;-82
2022/06/24 05:01:36;;;;;;;8.45;3.10;;;;;;;19.49;100.00;99044.19;12180911;19;20003;-81
2022/06/24 05:05:38;;;;;;;6.78;2.50;;;;;;;19.50;100.00;99057.00;12207703;19;20728;-79
2022/06/24 05:09:40;;;;;;;6.22;3.03;;;;;;;19.53;100.00;99050.75;12202570;19;20011;-81
2022/06/24 05:13:41;;;;;;;10.20;2.80;;;;;;;19.52;100.00;99051.91;12180358;19;20024;-79
2022/06/24 05:17:43;;;;;;;4.97;2.47;;;;;;;19.44;100.00;99047.13;12208962;19;20436;-81
2022/06/24 05:21:45;;;;;;;4.38;2.50;;;;;;;19.38;100.00;99056.00;12197207;19;20014;-78
2022/06/24 05:40:16;;;;;;;5.85;2.42;;;;;;;19.46;100.00;99044.03;12205010;19;20011;-79
2022/06/24 05:44:17;;;;;;;5.50;2.38;;;;;;;19.58;100.00;99052.56;12203991;19;20034;-80
2022/06/24 05:48:28;;;;;;;9.98;2.65;;;;;;;19.77;100.00;99043.88;12207577;19;20058;-80
2022/06/24 05:58:00;;;;;;;;;;;;;;;;;;;;;
2022/06/24 06:02:18;;;;;;;10.23;2.97;;;;;;;20.82;100.00;99056.50;12163869;19;20101;-83
2022/06/24 06:06:20;;;;;;;5.43;3.33;;;;;;;21.01;100.00;99060.84;12183895;19;20011;-83
2022/06/24 06:10:22;;;;;;;5.00;2.80;;;;;;;21.06;100.00;99060.63;12206832;19;20064;-82
2022/06/24 06:14:24;;;;;;;9.23;4.00;;;;;;;20.90;100.00;99060.41;12182951;19;20480;-82
2022/06/24 06:18:36;;;;;;;8.23;4.20;;;;;;;20.92;100.00;99070.09;12207460;19;20007;-82
2022/06/24 06:22:37;;;;;;;9.23;4.43;;;;;;;20.93;100.00;99063.34;12188091;19;20368;-82
2022/06/24 06:26:40;;;;;;;10.90;5.33;;;;;;;21.06;100.00;99071.84;12203404;19;20038;-82
2022/06/24 06:30:46;;;;;;;11.60;5.30;;;;;;;21.25;100.00;99068.63;12205971;19;20010;-82
2022/06/24 06:34:47;;;;;;;7.88;4.47;;;;;;;21.40;100.00;99065.25;12181911;19;20019;-83
2022/06/24 06:38:49;;;;;;;6.63;3.33;;;;;;;21.52;100.00;99075.72;12212730;19;20425;-82
2022/06/24 06:42:55;;;;;;;6.60;3.58;;;;;;;21.65;100.00;99088.66;12217870;19;20010;-82
2022/06/24 06:46:58;;;;;;;12.80;3.35;;;;;;;21.68;98.67;99073.94;12191120;19;20015;-83
2022/06/24 06:50:59;;;;;;;;;;;;;;;21.87;97.12;99067.06;12220792;19;20007;-82
2022/06/24 06:55:02;;;;;;;6.90;3.15;;;;;;;21.85;95.38;99079.41;12250171;19;19922;-83
2022/06/24 06:59:03;;;;;;;5.50;2.50;;;;;;;21.85;94.02;99065.38;12229106;19;20009;-81
2022/06/24 07:03:05;;;;;;;6.68;2.90;;;;;;;22.01;93.05;99073.16;12256188;19;20022;-83
2022/06/24 07:07:59;;;;;;;9.20;2.60;;;;;;;22.42;91.10;99071.47;12262222;19;20014;-82
2022/06/24 07:12:12;;;;;;;5.93;2.70;;;;;;;22.39;88.20;99080.59;12265600;19;20010;-82
2022/06/24 07:16:14;;;;;;;8.07;2.92;;;;;;;22.46;89.18;99070.44;12260333;19;20014;-83
2022/06/24 07:20:28;;;;;;;6.20;2.77;;;;;;;22.40;88.57;99073.81;12211927;19;20011;-82
2022/06/24 07:24:36;;;;;;;6.90;2.85;;;;;;;22.48;87.88;99076.53;12277908;19;20011;-82
2022/06/24 07:28:39;;;;;;;8.65;3.15;;;;;;;22.85;87.19;99070.97;12226060;19;20007;-82
2022/06/24 07:32:41;;;;;;;7.45;2.90;;;;;;;23.19;84.30;99074.53;12253778;19;20021;-82
2022/06/24 07:36:42;;;;;;;6.93;2.80;;;;;;;23.28;83.59;99071.59;12217264;19;20011;-82
2022/06/24 07:40:44;;;;;;;5.23;2.37;;;;;;;23.39;82.18;99062.31;12205263;19;20010;-82
2022/06/24 07:44:47;;;;;;;7.28;2.42;;;;;;;23.20;79.66;99062.94;12229473;19;20011;-82
2022/06/24 07:48:49;;;;;;;14.10;3.17;;;;;;;23.43;81.27;99054.81;12258345;19;20086;-82
2022/06/24 07:52:50;;;;;;;7.82;2.80;;;;;;;23.70;77.88;99051.63;12221618;19;20392;-83
2022/06/24 07:56:58;;;;;;;5.65;2.83;;;;;;;23.93;76.58;99051.91;12212395;19;20030;-82
2022/06/24 08:01:01;;;;;;;3.42;2.08;;;;;;;23.98;74.13;99046.03;12219776;19;20010;-83
2022/06/24 08:05:03;;;;;;;6.22;2.50;;;;;;;23.93;74.35;99044.28;12195746;19;20379;-83
2022/06/24 08:09:05;;;;;;;4.88;2.42;;;;;;;23.86;74.79;99046.91;12211554;19;20456;-83
2022/06/24 08:13:06;;;;;;;8.10;2.63;;;;;;;24.16;74.94;99046.53;12221877;19;20023;-81
2022/06/24 08:17:08;;;;;;;5.18;2.75;;;;;;;24.30;72.47;99053.38;12195446;19;20003;-81
2022/06/24 08:21:09;;;;;;;5.82;2.30;;;;;;;24.90;70.43;99039.28;12222357;19;20464;-82
2022/06/24 08:25:11;;;;;;;6.93;2.43;;;;;;;24.92;68.96;99045.34;12214776;19;20511;-82
2022/06/24 08:29:23;;;;;;;8.30;2.53;;;;;;;24.73;68.93;99036.81;12192835;19;20013;-82
2022/06/24 08:33:25;;;;;;;6.00;2.50;;;;;;;24.79;68.04;99053.09;12219695;19;20055;-81
2022/06/24 08:37:27;;;;;;;8.40;2.65;;;;;;;24.84;67.39;99052.00;12218044;19;20026;-81
2022/06/24 08:41:29;;;;;;;4.27;3.03;;;;;;;24.45;68.48;99054.63;12196540;19;20095;-80
2022/06/24 08:45:31;;;;;;;5.97;2.38;;;;;;;24.38;69.83;99042.31;12216850;19;20007;-81
2022/06/24 08:49:33;;;;;;;5.03;2.13;;;;;;;24.14;70.17;99051.69;12221541;19;20010;-81
2022/06/24 08:53:36;;;;;;;7.27;2.43;;;;;;;23.91;71.13;99054.25;12199127;19;20352;-81
2022/06/24 08:57:38;;;;;;;6.80;2.88;;;;;;;23.79;71.59;99049.47;12207534;19;20021;-81
2022/06/24 09:01:40;;;;;;;5.68;2.90;;;;;;;23.93;71.12;99049.91;12200443;19;20082;-81
2022/06/24 09:05:43;;;;;;;6.47;2.70;;;;;;;24.47;71.48;99046.63;12214713;19;20033;-81
2022/06/24 09:09:59;;;;;;;6.93;2.83;;;;;;;25.20;67.43;99034.00;12218246;19;20006;-81
2022/06/24 09:14:01;;;;;;;5.60;2.97;;;;;;;25.41;64.08;99033.69;12210153;19;20018;-82
2022/06/24 09:18:03;;;;;;;6.13;2.75;;;;;;;25.46;61.82;99039.03;12234615;19;20014;-82
2022/06/24 09:22:05;;;;;;;5.53;2.70;;;;;;;26.14;61.72;99029.19;12240347;19;20002;-82
2022/06/24 09:26:10;;;;;;;3.05;2.38;;;;;;;26.12;60.12;99028.75;12214774;19;20011;-83
2022/06/24 09:30:14;;;;;;;3.75;2.53;;;;;;;25.69;59.64;99021.38;12217847;19;20395;-83
2022/06/24 09:34:17;;;;;;;5.15;3.00;;;;;;;26.09;58.11;99017.41;12219875;19;20014;-82
2022/06/24 09:38:20;;;;;;;3.90;2.55;;;;;;;26.47;58.72;99010.84;12194274;19;20014;-84
2022/06/24 09:42:23;;;;;;;4.18;2.38;;;;;;;26.76;57.31;99008.56;12218481;19;20011;-83
2022/06/24 09:46:25;;;;;;;4.83;3.00;;;;;;;26.94;55.18;99023.78;12220083;19;20605;-83
2022/06/24 09:50:28;;;;;;;3.15;2.20;;;;;;;27.21;53.90;99024.66;12193664;19;20661;-83
2022/06/24 09:54:31;;;;;;;4.68;2.38;;;;;;;27.23;53.09;99024.28;12212164;19;20010;-83
2022/06/24 09:58:37;;;;;;;9.38;3.20;;;;;;;27.42;53.56;99026.97;12218223;19;20010;-83
2022/06/24 10:02:40;;;;;;;5.72;2.97;;;;;;;27.40;53.42;99022.94;12179032;19;20029;-83
2022/06/24 10:06:44;;;;;;;6.00;2.33;;;;;;;27.33;52.85;99012.31;12215465;19;20011;-83
2022/06/24 10:10:49;;;;;;;8.32;2.88;;;;;;;27.25;52.39;99005.75;12191533;19;20476;-83
2022/06/24 10:14:52;;;;;;;4.20;2.63;;;;;;;27.48;51.04;99002.84;12211942;19;20028;-83
2022/06/24 10:18:56;;;;;;;5.15;2.88;;;;;;;27.57;51.63;99011.03;12216539;19;20010;-83
2022/06/24 10:22:58;;;;;;;3.30;2.58;;;;;;;27.22;51.29;99009.34;12192640;19;20008;-83
2022/06/24 10:27:00;;;;;;;3.70;2.27;;;;;;;27.45;50.64;99008.44;12209032;19;20051;-84
2022/06/24 10:31:02;;;;;;;3.37;2.40;;;;;;;27.64;48.81;98996.97;12209012;19;20474;-83
2022/06/24 10:35:06;;;;;;;4.85;2.10;;;;;;;28.02;48.90;98997.06;12199784;19;20381;-84
2022/06/24 10:39:28;;;;;;;3.63;2.00;;;;;;;28.07;48.34;99003.19;12215971;19;20014;-84
2022/06/24 10:43:41;;;;;;;3.08;2.10;;;;;;;28.09;47.56;98994.31;12211144;19;20013;-82
2022/06/24 10:47:43;;;;;;;2.65;1.80;;;;;;;28.07;47.31;99003.19;12192143;19;20010;-83
2022/06/24 10:51:47;;;;;;;10.15;2.28;;;;;;;28.63;46.09;99002.19;12207488;19;20037;-84
2022/06/24 10:55:55;;;;;;;5.55;2.63;;;;;;;28.86;45.18;98992.66;12184499;19;20555;-84
2022/06/24 10:59:57;;;;;;;5.38;2.25;;;;;;;28.43;46.75;98991.44;12209390;19;20018;-85
2022/06/24 11:04:03;;;;;;;4.22;2.58;;;;;;;29.10;46.00;98982.75;12207544;19;20011;-84
2022/06/24 11:08:22;;;;;;;4.18;2.78;;;;;;;28.85;44.22;98999.50;12180024;19;20805;-86
2022/06/24 11:12:31;;;;;;;5.95;2.30;;;;;;;28.76;45.51;99001.88;12215957;19;20519;-85
2022/06/24 11:16:34;;;;;;;4.07;2.60;;;;;;;29.11;43.95;98981.53;12206236;19;20033;-83
2022/06/24 11:20:45;;;;;;;4.82;2.83;;;;;;;29.23;44.31;98975.50;12219486;19;20025;-86
2022/06/24 11:24:48;;;;;;;5.03;2.80;;;;;;;29.85;43.65;98974.63;12238829;19;20007;-85
2022/06/24 11:28:56;;;;;;;4.10;2.67;;;;;;;29.86;42.54;98996.13;12198702;19;20123;-83
2022/06/24 11:33:03;;;;;;;5.57;2.85;;;;;;;29.78;42.47;99000.19;12226967;19;20026;-84
2022/06/24 11:37:08;;;;;;;5.63;2.53;;;;;;;30.11;42.40;98996.25;12216349;19;20062;-81
2022/06/24 11:41:12;;;;;;;7.68;2.78;;;;;;;30.46;41.64;98985.38;12206048;19;20022;-84
2022/06/24 11:45:41;;;;;;;4.13;2.70;;;;;;;30.54;41.33;98982.13;12214870;19;19998;-84
2022/06/24 11:50:19;;;;;;;5.95;3.78;;;;;;;30.51;41.11;98980.09;12186342;19;20381;-83
2022/06/24 11:54:28;;;;;;;3.67;2.70;;;;;;;30.51;40.19;98971.56;12215951;19;20037;-84
2022/06/24 11:58:43;;;;;;;2.65;2.35;;;;;;;30.67;40.27;98971.19;12216298;19;20007;-82
2022/06/24 12:02:52;;;;;;;4.85;2.78;;;;;;;29.75;41.74;98973.41;12204262;19;20003;-85
2022/06/24 12:06:54;;;;;;;4.10;2.53;;;;;;;29.08;42.71;98959.63;12210912;19;20013;-83
2022/06/24 12:10:57;;;;;;;4.00;2.40;;;;;;;28.63;44.23;98959.66;12183055;19;20066;-83
2022/06/24 12:15:02;;;;;;;7.53;3.10;;;;;;;28.61;45.46;98950.72;12211534;19;20021;-86
2022/06/24 12:19:08;;;;;;;5.90;3.42;;;;;;;29.61;42.82;98955.47;12216587;19;20086;-84
2022/06/24 12:23:25;;;;;;;4.20;2.30;;;;;;;30.26;41.85;98942.31;12143620;19;20494;-86
2022/06/24 12:27:37;;;;;;;2.85;1.92;;;;;;;31.51;39.20;98928.81;12200741;19;20006;-83
2022/06/24 12:31:50;;;;;;;6.07;2.78;;;;;;;32.30;37.91;98933.28;12212215;19;20024;-83
2022/06/24 12:36:41;;;;;;;3.95;2.08;;;;;;;31.99;36.98;98925.34;12192200;19;20081;-85
2022/06/24 12:40:47;;;;;;;4.15;2.20;;;;;;;31.53;38.04;98928.38;12190251;19;20017;-85
2022/06/24 12:44:52;;;;;;;4.75;1.77;;;;;;;31.73;37.66;98915.28;12214964;19;20046;-84
2022/06/24 12:53:18;;;;;;;4.97;1.98;;;;;;;33.45;35.34;98896.75;12191971;19;20010;-83
2022/06/24 12:57:40;;;;;;;;;;;;;;;32.96;34.61;98896.09;12216306;19;20014;-86
2022/06/24 13:01:44;;;;;;;4.20;2.17;;;;;;;32.45;36.12;98889.22;12221819;19;19946;-84
2022/06/24 13:05:47;;;;;;;2.65;1.75;;;;;;;31.70;36.46;98893.31;12178633;19;20006;-84
2022/06/24 13:09:50;;;;;;;6.07;2.15;;;;;;;30.92;37.01;98891.56;12208895;19;20078;-85
2022/06/24 13:13:57;;;;;;;4.75;2.00;;;;;;;30.89;36.43;98889.53;12187756;19;20032;-85
2022/06/24 13:18:06;;;;;;;7.00;2.90;;;;;;;31.31;37.17;98890.63;12206230;19;20041;-84
2022/06/24 13:22:08;;;;;;;3.95;2.15;;;;;;;31.21;36.73;98885.78;12192905;19;20079;-84
2022/06/24 13:26:11;;;;;;;3.17;1.85;;;;;;;32.40;35.50;98878.25;12185762;19;20073;-84
2022/06/24 13:30:13;;;;;;;2.20;1.92;;;;;;;34.43;33.55;98879.88;12210281;19;20029;-85
2022/06/24 13:34:15;;;;;;;2.45;1.90;;;;;;;35.34;29.68;98880.72;12205253;19;20018;-85
2022/06/24 13:38:19;;;;;;;3.33;2.08;;;;;;;36.79;28.96;98876.97;12182863;19;20007;-84
2022/06/24 13:42:32;;;;;;;2.90;2.08;;;;;;;36.70;28.74;98866.13;12206732;19;20082;-86
2022/06/24 13:46:34;;;;;;;3.92;2.20;;;;;;;35.42;29.28;98861.31;12208726;19;20475;-84
2022/06/24 13:50:36;;;;;;;4.85;2.10;;;;;;;37.02;28.31;98862.41;12188141;19;20023;-85
2022/06/24 13:54:39;;;;;;;3.25;2.25;;;;;;;38.67;27.01;98865.97;12204387;19;20062;-83
2022/06/24 13:58:41;;;;;;;3.63;1.75;;;;;;;39.64;24.18;98863.28;12209544;19;20033;-85
2022/06/24 14:02:43;;;;;;;5.57;2.00;;;;;;;39.26;24.26;98872.13;12179475;19;20007;-84
2022/06/24 14:06:49;;;;;;;2.78;1.90;;;;;;;38.22;25.00;98885.13;12212443;19;20113;-85
2022/06/24 14:11:04;;;;;;;4.60;2.22;;;;;;;39.18;24.45;98874.47;12191956;19;20010;-85
2022/06/24 14:15:08;;;;;;;5.35;2.00;;;;;;;37.68;25.22;98879.41;12215068;19;20333;-85
2022/06/24 14:19:11;;;;;;;4.53;2.08;;;;;;;36.43;26.82;98866.38;12211728;19;20771;-85
2022/06/24 14:27:39;;;;;;;2.30;1.98;;;;;;;36.59;26.52;98854.13;12214615;19;20011;-84
2022/06/24 14:31:40;;;;;;;2.92;1.90;;;;;;;35.99;26.85;98843.69;12205442;19;20013;-84
2022/06/24 14:35:42;;;;;;;3.40;1.80;;;;;;;34.97;27.35;98836.03;12181881;19;20051;-85
2022/06/24 14:44:05;;;;;;;;;;;;;;;36.78;25.46;98824.50;12186182;19;20007;-85
2022/06/24 14:48:07;;;;;;;;;;;;;;;35.91;27.29;98824.22;12205095;19;19913;-86
2022/06/24 14:52:09;;;;;;;2.72;2.38;;;;;;;35.83;27.28;98818.66;12207040;19;19937;-85
2022/06/24 14:56:15;;;;;;;4.32;2.47;;;;;;;35.85;27.41;98831.75;12185434;19;20010;-85
2022/06/24 15:00:21;;;;;;;2.78;2.40;;;;;;;35.11;27.39;98830.84;12220716;19;20018;-85
2022/06/24 15:04:23;;;;;;;3.97;2.53;;;;;;;33.82;29.08;98820.78;12213535;19;20430;-85
2022/06/24 15:08:25;;;;;;;4.10;2.80;;;;;;;32.73;30.63;98816.84;12182163;19;20011;-85
2022/06/24 15:12:27;;;;;;;4.75;2.00;;;;;;;31.95;31.17;98816.31;12217840;19;20023;-84
2022/06/24 15:16:29;;;;;;;5.45;2.55;;;;;;;31.31;32.83;98823.13;12210967;19;20087;-85
2022/06/24 15:20:31;;;;;;;3.03;2.47;;;;;;;30.83;32.79;98831.44;12195615;19;20102;-83
2022/06/24 15:24:32;;;;;;;2.72;1.80;;;;;;;29.98;34.59;98838.75;12210334;19;20034;-84
2022/06/24 15:28:34;;;;;;;2.97;1.90;;;;;;;29.50;35.44;98841.88;12209924;19;20011;-83
2022/06/24 15:32:36;;;;;;;5.40;2.08;;;;;;;29.11;36.44;98847.41;12197243;19;20006;-84
2022/06/24 15:36:39;;;;;;;3.83;2.33;;;;;;;28.69;38.24;98857.25;12209680;19;20534;-84
2022/06/24 15:40:40;;;;;;;3.35;2.40;;;;;;;28.06;41.20;98862.00;12224399;19;20019;-82
2022/06/24 15:44:42;;;;;;;4.78;2.70;;;;;;;27.53;43.42;98874.34;12189544;19;20064;-84
2022/06/24 15:48:44;;;;;;;5.57;2.90;;;;;;;27.14;45.77;98897.28;12223364;19;20022;-83
2022/06/24 15:52:46;;;;;;;6.20;2.70;;;;;;;26.62;46.45;98915.88;12215434;19;19998;-83
2022/06/24 15:56:48;;;;;;;3.67;1.53;;;;;;;25.76;48.87;98948.19;12190530;19;21105;-89
2022/06/24 16:00:50;;;;;;;5.93;1.60;;;;;;;24.68;53.14;98998.47;12228252;19;20018;-85
2022/06/24 16:04:52;;;;;;;2.77;1.40;;;;;;;23.72;56.08;99021.97;12207911;19;20554;-88
2022/06/24 16:08:56;;;;;;;2.17;1.25;;;;;;;22.89;59.13;99024.16;12198229;19;20011;-85
2022/06/24 16:13:02;;;;;;;2.58;1.23;;;;;;;22.48;58.94;99019.56;12232116;19;20021;-85
2022/06/24 16:21:58;;;;;;;3.08;1.20;;;;;;;21.79;61.84;99038.72;12248150;19;20321;-83
2022/06/24 16:30:20;;;;;;;4.05;1.38;;;;;;;21.08;71.58;99070.34;12207908;19;20019;-80
2022/06/24 16:34:22;;;;;;;2.25;1.73;;;;;;;20.71;76.10;99084.03;12207947;19;20006;-78
2022/06/24 16:38:23;;;;;;;3.72;1.50;;;;;;;20.42;79.36;99087.53;12180481;19;20054;-79
2022/06/24 16:42:25;;;;;;;2.67;1.70;;;;;;;20.11;78.86;99075.75;12214591;19;20014;-81
2022/06/24 16:46:27;;;;;;;3.50;1.60;;;;;;;19.95;78.73;99081.84;12209393;19;20434;-82
2022/06/24 16:50:29;;;;;;;2.92;1.85;;;;;;;19.78;77.96;99077.09;12176669;19;20002;-81
2022/06/24 16:54:31;;;;;;;7.27;1.87;;;;;;;19.62;81.23;99075.09;12208821;19;20559;-81
2022/06/24 16:58:33;;;;;;;4.57;1.92;;;;;;;19.47;85.91;99091.19;12210792;19;20489;-80
2022/06/24 17:02:34;;;;;;;4.35;1.85;;;;;;;19.42;86.90;99098.88;12182965;19;20003;-83
2022/06/24 17:06:36;;;;;;;5.88;2.28;;;;;;;19.42;89.61;99104.47;12210296;19;20023;-80
2022/06/24 17:10:39;;;;;;;6.82;2.28;;;;;;;19.39;92.48;99117.13;12203815;19;20029;-81
2022/06/24 17:14:42;;;;;;;4.60;2.55;;;;;;;19.34;93.58;99142.44;12188163;19;20011;-79
2022/06/24 17:18:43;;;;;;;4.10;2.10;;;;;;;19.25;100.00;99149.97;12214896;19;20023;-81
2022/06/24 17:22:47;;;;;;;6.05;2.28;;;;;;;19.16;99.67;99154.72;12213931;19;20010;-82
2022/06/24 17:26:49;;;;;;;3.90;2.10;;;;;;;19.12;100.00;99172.06;12180377;19;20086;-81
2022/06/24 17:30:51;;;;;;;5.85;2.00;;;;;;;19.02;100.00;99169.59;12205870;19;20085;-79
2022/06/24 17:34:53;;;;;;;7.15;2.47;;;;;;;19.01;100.00;99175.50;12188018;19;20003;-81
2022/06/24 17:38:55;;;;;;;3.03;1.55;;;;;;;19.02;100.00;99177.97;12201859;19;20010;-80
2022/06/24 17:43:00;;;;;;;5.30;2.03;;;;;;;18.95;100.00;99179.56;12205866;19;20027;-81
2022/06/24 17:47:01;;;;;;;6.25;2.35;;;;;;;18.83;100.00;99178.19;12174809;19;20555;-82
2022/06/24 17:51:03;;;;;;;5.90;2.97;;;;;;;18.82;100.00;99175.72;12206236;19;20367;-80
2022/06/24 17:55:05;;;;;;;8.02;2.33;;;;;;;18.80;100.00;99184.44;12198016;19;20015;-79
2022/06/24 17:59:07;;;;;;;6.28;3.08;;;;;;;18.76;100.00;99191.78;12171538;19;20043;-83
2022/06/24 18:03:09;;;;;;;7.25;2.25;;;;;;;18.73;100.00;99194.34;12205743;19;20010;-83
2022/06/24 18:07:11;;;;;;;5.57;2.53;;;;;;;18.70;100.00;99192.19;12192819;19;20010;-83
2022/06/24 18:11:12;;;;;;;10.10;2.45;;;;;;;18.63;100.00;99193.47;12174534;19;20408;-83
2022/06/24 18:15:14;;;;;;;7.38;2.67;;;;;;;18.60;100.00;99198.88;12192220;19;20094;-82
2022/06/24 18:19:16;;;;;;;4.93;3.13;;;;;;;18.58;100.00;99201.16;12191049;19;20014;-82
2022/06/24 18:23:18;;;;;;;6.60;3.10;;;;;;;18.53;100.00;99207.69;12174228;19;20014;-82
2022/06/24 18:27:19;;;;;;;5.70;3.08;;;;;;;18.49;100.00;99215.03;12196686;19;20038;-83
2022/06/24 18:31:21;;;;;;;8.57;3.13;;;;;;;18.54;100.00;99214.91;12205596;19;20033;-83
2022/06/24 18:35:24;;;;;;;7.03;3.15;;;;;;;18.61;100.00;99211.69;12178766;19;20002;-82
2022/06/24 18:39:26;;;;;;;5.07;2.92;;;;;;;18.65;100.00;99210.72;12214460;19;20053;-82
2022/06/24 18:43:28;;;;;;;8.15;3.03;;;;;;;18.62;100.00;99225.31;12211099;19;20468;-83
2022/06/24 18:47:30;;;;;;;3.60;2.30;;;;;;;18.53;100.00;99235.59;12193423;19;20074;-82
2022/06/24 18:52:28;;;;;;;4.47;2.60;;;;;;;18.49;100.00;99237.34;12208591;19;20041;-82
2022/06/24 19:13:28;;;;;;;5.57;2.95;;;;;;;18.47;100.00;99250.78;12239549;19;19997;-82
2022/06/24 19:44:28;;;;;;;4.22;2.70;;;;;;;18.41;100.00;99263.22;12211495;19;20007;-83
2022/06/24 19:49:52;;;;;;;4.82;3.22;;;;;;;18.36;100.00;99266.13;12097057;19;2004436;-82
2022/06/24 22:02:02;;;;;;;8.95;5.50;;;;;;;17.48;100.00;99297.78;12238861;19;20012;-82
2022/06/24 22:31:46;;;;;;;11.75;5.30;;;;;;;17.31;100.00;99323.47;12194166;19;20010;-80
2022/06/24 22:35:50;;;;;;;7.47;5.30;;;;;;;17.30;100.00;99324.56;12179624;19;20007;-80
2022/06/24 22:39:51;;;;;;;6.93;4.35;;;;;;;17.29;100.00;99325.72;12200829;19;20094;-83
2022/06/24 22:43:53;;;;;;;7.93;4.57;;;;;;;17.27;100.00;99330.75;12160107;19;20007;-81
2022/06/24 22:47:55;;;;;;;7.57;4.97;;;;;;;17.26;100.00;99331.91;12178430;19;20027;-80
2022/06/24 22:51:57;;;;;;;6.18;3.65;;;;;;;17.24;100.00;99334.16;12197758;19;20471;-83
2022/06/24 22:55:59;;;;;;;8.95;4.63;;;;;;;17.23;100.00;99343.66;12194844;19;20009;-80
2022/06/24 23:00:01;;;;;;;8.93;4.28;;;;;;;17.21;100.00;99342.28;12201246;19;20027;-80
2022/06/24 23:04:03;;;;;;;5.53;3.80;;;;;;;17.19;100.00;99348.19;12191972;19;20003;-80
2022/06/24 23:08:06;;;;;;;8.75;4.18;;;;;;;17.17;100.00;99344.03;12170405;19;20369;-81
2022/06/24 23:12:08;;;;;;;6.05;3.75;;;;;;;17.19;100.00;99347.31;12197915;19;20038;-83
2022/06/24 23:16:10;;;;;;;7.53;4.17;;;;;;;17.19;100.00;99345.41;12198459;19;20491;-81
2022/06/24 23:20:12;;;;;;;7.13;3.67;;;;;;;17.19;100.00;99348.19;12192577;19;20021;-82
2022/06/24 23:24:14;;;;;;;5.65;3.30;;;;;;;17.17;100.00;99349.63;12220886;19;20011;-81
2022/06/24 23:28:16;;;;;;;5.88;3.28;;;;;;;17.18;100.00;99351.25;12219089;19;20011;-82
2022/06/24 23:32:20;;;;;;;7.32;3.75;;;;;;;17.21;100.00;99367.34;12193158;19;20337;-81
2022/06/24 23:36:21;;;;;;;9.65;3.70;;;;;;;17.23;100.00;99365.91;12211095;19;20014;-81
2022/06/24 23:40:28;;;;;;;8.90;5.38;;;;;;;17.25;100.00;99374.81;12213232;19;20087;-80
2022/06/24 23:44:30;;;;;;;13.35;4.32;;;;;;;17.24;100.00;99375.91;12194758;19;20090;-82
2022/06/24 23:52:52;;;;;;;5.85;3.35;;;;;;;17.16;100.00;99393.31;12208778;19;20007;-81
2022/06/24 23:56:53;;;;;;;5.45;3.40;;;;;;;17.15;100.00;99390.84;12182107;19;20082;-81
